createdAt,value
2022-09-01T00:00:53.430Z,62.82
2022-09-01T00:03:26.720Z,62.62
2022-09-01T00:05:58.782Z,62.26
2022-09-01T00:08:30.891Z,62.25
2022-09-01T00:11:02.767Z,63.01
2022-09-01T00:13:35.931Z,63.47
2022-09-01T00:16:09.912Z,63.43
2022-09-01T00:18:43.092Z,63.10
2022-09-01T00:21:15.394Z,63.08
2022-09-01T00:23:48.458Z,62.67
2022-09-01T00:26:20.540Z,63.14
2022-09-01T00:28:52.554Z,62.69
2022-09-01T00:31:25.040Z,62.36
2022-09-01T00:33:58.051Z,62.35
2022-09-01T00:36:29.904Z,62.27
2022-09-01T00:39:02.987Z,62.25
2022-09-01T00:41:38.472Z,62.14
2022-09-01T00:44:15.107Z,62.03
2022-09-01T00:46:55.020Z,61.91
2022-09-01T00:49:30.106Z,61.96
2022-09-01T00:52:06.511Z,62.06
2022-09-01T00:54:43.184Z,62.18
2022-09-01T00:57:16.397Z,62.21
2022-09-01T00:59:51.686Z,62.48
2022-09-01T01:02:24.180Z,62.47
2022-09-01T01:05:03.102Z,62.30
2022-09-01T01:07:46.036Z,62.36
2022-09-01T01:10:30.601Z,62.25
2022-09-01T01:13:04.924Z,62.37
2022-09-01T01:15:37.155Z,62.43
2022-09-01T01:18:09.283Z,62.34
2022-09-01T01:21:00.803Z,62.37
2022-09-01T01:23:40.363Z,62.39
2022-09-01T01:26:12.925Z,62.42
2022-09-01T01:28:45.491Z,62.42
2022-09-01T01:31:26.429Z,62.47
2022-09-01T01:33:59.398Z,62.72
2022-09-01T01:36:36.483Z,62.76
2022-09-01T01:39:14.032Z,62.74
2022-09-01T01:41:52.271Z,63.11
2022-09-01T01:44:28.072Z,63.18
2022-09-01T01:47:00.917Z,63.24
2022-09-01T01:49:32.824Z,63.13
2022-09-01T01:52:11.820Z,63.68
2022-09-01T01:54:46.244Z,63.56
2022-09-01T01:57:18.625Z,63.40
2022-09-01T01:59:50.502Z,63.46
2022-09-01T02:02:23.997Z,63.38
2022-09-01T02:04:56.574Z,63.37
2022-09-01T02:07:30.295Z,63.32
2022-09-01T02:10:06.658Z,63.29
2022-09-01T02:12:44.622Z,63.26
2022-09-01T02:15:16.505Z,63.21
2022-09-01T02:17:49.084Z,63.22
2022-09-01T02:20:22.090Z,63.14
2022-09-01T02:22:58.840Z,63.12
2022-09-01T02:25:32.070Z,63.15
2022-09-01T02:28:05.436Z,63.06
2022-09-01T02:30:37.972Z,63.03
2022-09-01T02:33:11.256Z,63.17
2022-09-01T02:35:44.473Z,63.11
2022-09-01T02:38:18.059Z,63.19
2022-09-01T02:40:50.504Z,63.31
2022-09-01T02:43:27.614Z,63.35
2022-09-01T02:46:02.159Z,63.42
2022-09-01T02:48:38.024Z,63.61
2022-09-01T02:51:14.247Z,63.67
2022-09-01T02:53:51.580Z,63.73
2022-09-01T02:56:27.827Z,63.93
2022-09-01T02:59:00.370Z,64.07
2022-09-01T03:01:34.268Z,64.49
2022-09-01T03:04:10.810Z,64.38
2022-09-01T03:06:43.207Z,64.74
2022-09-01T03:09:17.919Z,64.58
2022-09-01T03:11:53.403Z,64.71
2022-09-01T03:14:26.289Z,64.60
2022-09-01T03:17:00.737Z,64.69
2022-09-01T03:19:40.297Z,64.74
2022-09-01T03:22:12.171Z,64.77
2022-09-01T03:24:44.777Z,64.74
2022-09-01T03:27:16.633Z,64.66
2022-09-01T03:29:48.506Z,64.81
2022-09-01T03:32:20.504Z,65.78
2022-09-01T03:34:53.246Z,65.93
2022-09-01T03:37:25.078Z,65.69
2022-09-01T03:39:59.978Z,66.01
2022-09-01T03:42:32.574Z,66.10
2022-09-01T03:45:10.052Z,65.92
2022-09-01T03:47:42.092Z,65.82
2022-09-01T03:50:23.749Z,65.78
2022-09-01T03:52:59.047Z,65.83
2022-09-01T03:55:34.559Z,66.15
2022-09-01T03:58:20.018Z,65.92
2022-09-01T04:00:58.089Z,66.04
2022-09-01T04:03:34.691Z,65.93
2022-09-01T04:06:11.175Z,66.01
2022-09-01T04:08:44.301Z,65.99
2022-09-01T04:11:25.820Z,65.95
2022-09-01T04:13:57.867Z,65.97
2022-09-01T04:16:50.172Z,65.96
2022-09-01T04:19:26.638Z,66.10
2022-09-01T04:22:02.383Z,66.16
2022-09-01T04:24:35.092Z,66.33
2022-09-01T04:27:08.559Z,66.52
2022-09-01T04:29:41.932Z,66.38
2022-09-01T04:32:14.693Z,66.31
2022-09-01T04:34:46.977Z,66.25
2022-09-01T04:37:21.413Z,66.38
2022-09-01T04:39:57.095Z,66.83
2022-09-01T04:42:33.503Z,66.76
2022-09-01T04:45:11.405Z,66.45
2022-09-01T04:47:45.661Z,66.52
2022-09-01T04:50:22.241Z,66.54
2022-09-01T04:52:57.307Z,66.73
2022-09-01T04:55:30.470Z,66.75
2022-09-01T04:58:09.948Z,66.51
2022-09-01T05:00:45.263Z,67.05
2022-09-01T05:03:22.410Z,67.02
2022-09-01T05:05:54.430Z,66.63
2022-09-01T05:08:26.427Z,66.79
2022-09-01T05:10:58.341Z,66.91
2022-09-01T05:13:32.777Z,67.08
2022-09-01T05:16:07.628Z,66.48
2022-09-01T05:18:41.660Z,66.37
2022-09-01T05:21:17.021Z,66.59
2022-09-01T05:23:51.455Z,66.57
2022-09-01T05:26:26.331Z,66.52
2022-09-01T05:29:00.488Z,66.29
2022-09-01T05:31:39.037Z,66.16
2022-09-01T05:34:13.861Z,65.92
2022-09-01T05:36:51.755Z,65.59
2022-09-01T05:39:23.691Z,65.43
2022-09-01T05:41:55.927Z,65.34
2022-09-01T05:44:28.707Z,65.18
2022-09-01T05:47:03.529Z,65.22
2022-09-01T05:49:36.437Z,64.85
2022-09-01T05:52:09.371Z,64.97
2022-09-01T05:54:42.487Z,64.75
2022-09-01T05:57:33.165Z,64.39
2022-09-01T06:00:21.677Z,64.52
2022-09-01T06:02:53.823Z,64.37
2022-09-01T06:05:27.916Z,64.35
2022-09-01T06:07:59.774Z,64.56
2022-09-01T06:10:33.096Z,64.56
2022-09-01T06:13:06.197Z,64.74
2022-09-01T06:15:40.671Z,64.58
2022-09-01T06:18:14.939Z,64.89
2022-09-01T06:20:51.226Z,64.71
2022-09-01T06:23:23.722Z,64.45
2022-09-01T06:25:55.637Z,64.18
2022-09-01T06:28:29.620Z,64.42
2022-09-01T06:31:07.325Z,64.58
2022-09-01T06:33:39.450Z,64.31
2022-09-01T06:36:13.205Z,63.94
2022-09-01T06:38:45.079Z,63.47
2022-09-01T06:41:20.276Z,63.43
2022-09-01T06:43:54.193Z,62.85
2022-09-01T06:46:30.915Z,62.65
2022-09-01T06:49:11.677Z,62.37
2022-09-01T06:51:45.485Z,61.95
2022-09-01T06:54:20.739Z,62.16
2022-09-01T06:56:53.625Z,61.59
2022-09-01T06:59:34.558Z,61.66
2022-09-01T07:02:15.312Z,61.66
2022-09-01T07:04:50.107Z,61.49
2022-09-01T07:10:21.384Z,60.80
2022-09-01T07:13:06.282Z,60.63
2022-09-01T07:18:34.160Z,60.28
2022-09-01T07:21:35.631Z,59.82
2022-09-01T07:24:10.362Z,59.85
2022-09-01T07:26:47.150Z,60.01
2022-09-01T07:29:22.883Z,59.46
2022-09-01T07:34:49.082Z,58.70
2022-09-01T07:43:22.530Z,58.40
2022-09-01T07:46:36.638Z,56.65
2022-09-01T07:49:29.291Z,57.16
2022-09-01T07:51:53.977Z,56.04
2022-09-01T07:54:26.349Z,55.71
2022-09-01T07:56:58.228Z,55.70
2022-09-01T07:59:31.381Z,55.24
2022-09-01T08:02:06.771Z,54.82
2022-09-01T08:04:40.209Z,55.05
2022-09-01T08:07:15.997Z,54.33
2022-09-01T08:09:48.662Z,54.77
2022-09-01T08:12:28.950Z,55.03
2022-09-01T08:17:54.403Z,53.27
2022-09-01T08:20:26.281Z,54.05
2022-09-01T08:22:58.276Z,51.57
2022-09-01T08:25:30.911Z,52.47
2022-09-01T08:28:04.815Z,51.89
2022-09-01T08:30:38.984Z,51.27
2022-09-01T08:33:12.199Z,49.23
2022-09-01T08:35:45.620Z,50.08
2022-09-01T08:38:18.141Z,50.82
2022-09-01T08:40:57.392Z,50.40
2022-09-01T08:43:43.308Z,51.07
2022-09-01T08:46:21.037Z,50.23
2022-09-01T08:49:24.139Z,50.81
2022-09-01T08:51:53.283Z,49.43
2022-09-01T08:54:43.193Z,47.36
2022-09-01T08:57:21.960Z,46.89
2022-09-01T08:59:55.077Z,47.39
2022-09-01T09:02:47.881Z,48.13
2022-09-01T09:05:36.902Z,47.52
2022-09-01T09:08:26.521Z,46.35
2022-09-01T09:11:07.052Z,46.57
2022-09-01T09:13:56.816Z,44.76
2022-09-01T09:16:33.274Z,45.75
2022-09-01T09:19:09.248Z,45.68
2022-09-01T09:21:44.049Z,46.85
2022-09-01T09:24:25.146Z,46.30
2022-09-01T09:27:00.596Z,44.65
2022-09-01T09:29:32.481Z,46.17
2022-09-01T09:32:44.330Z,45.40
2022-09-01T09:35:21.864Z,45.32
2022-09-01T09:37:54.300Z,46.23
2022-09-01T09:40:27.790Z,46.77
2022-09-01T09:43:11.475Z,45.04
2022-09-01T09:45:43.765Z,45.00
2022-09-01T09:48:31.640Z,46.23
2022-09-01T09:51:21.243Z,43.80
2022-09-01T09:53:53.420Z,43.67
2022-09-01T09:56:28.301Z,42.10
2022-09-01T09:59:01.655Z,43.83
2022-09-01T10:01:34.413Z,42.07
2022-09-01T10:04:06.655Z,42.60
2022-09-01T10:06:41.965Z,42.86
2022-09-01T10:09:36.205Z,43.89
2022-09-01T10:12:11.590Z,42.68
2022-09-01T10:14:53.458Z,42.86
2022-09-01T10:17:30.967Z,44.26
2022-09-01T10:20:12.810Z,44.21
2022-09-01T10:22:45.162Z,44.29
2022-09-01T10:25:22.030Z,44.05
2022-09-01T10:27:58.381Z,43.58
2022-09-01T10:30:33.556Z,42.66
2022-09-01T10:33:12.177Z,42.23
2022-09-01T10:35:53.281Z,41.16
2022-09-01T10:38:28.169Z,41.95
2022-09-01T10:41:16.102Z,40.22
2022-09-01T10:43:49.524Z,40.50
2022-09-01T10:46:50.944Z,38.81
2022-09-01T10:49:53.205Z,38.15
2022-09-01T10:53:02.427Z,37.46
2022-09-01T10:55:48.637Z,39.45
2022-09-01T11:02:28.024Z,37.77
2022-09-01T11:05:19.464Z,39.04
2022-09-01T11:08:01.351Z,39.26
2022-09-01T11:10:49.454Z,39.08
2022-09-01T11:13:49.613Z,37.56
2022-09-01T11:16:47.910Z,39.24
2022-09-01T11:19:41.332Z,39.01
2022-09-01T11:22:27.495Z,38.10
2022-09-01T11:25:39.689Z,36.97
2022-09-01T11:28:36.748Z,37.56
2022-09-01T11:31:25.545Z,38.39
2022-09-01T11:34:06.919Z,38.92
2022-09-01T11:36:52.871Z,38.33
2022-09-01T11:39:41.916Z,38.42
2022-09-01T11:42:22.816Z,38.86
2022-09-01T11:45:00.896Z,38.11
2022-09-01T11:47:37.709Z,38.07
2022-09-01T11:50:25.822Z,37.26
2022-09-01T11:53:04.963Z,37.14
2022-09-01T11:55:40.968Z,35.64
2022-09-01T11:58:17.941Z,34.58
2022-09-01T12:00:52.382Z,34.21
2022-09-01T12:03:29.108Z,33.64
2022-09-01T12:06:04.220Z,34.56
2022-09-01T12:08:39.266Z,36.22
2022-09-01T12:11:15.144Z,36.17
2022-09-01T12:13:58.728Z,36.32
2022-09-01T12:16:34.899Z,34.87
2022-09-01T12:19:08.986Z,34.43
2022-09-01T12:21:44.672Z,32.64
2022-09-01T12:24:19.951Z,31.00
2022-09-01T12:26:55.964Z,31.47
2022-09-01T12:29:32.047Z,31.68
2022-09-01T12:32:06.567Z,32.20
2022-09-01T12:34:44.021Z,32.91
2022-09-01T12:37:24.455Z,31.62
2022-09-01T12:40:00.472Z,32.13
2022-09-01T12:42:40.903Z,31.80
2022-09-01T12:45:15.544Z,31.07
2022-09-01T12:47:52.329Z,32.41
2022-09-01T12:50:50.972Z,31.40
2022-09-01T12:53:30.562Z,31.41
2022-09-01T12:56:07.338Z,32.77
2022-09-01T12:58:39.987Z,33.78
2022-09-01T13:01:25.038Z,32.18
2022-09-01T13:04:30.115Z,32.30
2022-09-01T13:07:06.271Z,33.15
2022-09-01T13:09:38.189Z,32.19
2022-09-01T13:12:17.834Z,32.04
2022-09-01T13:14:49.842Z,31.70
2022-09-01T13:17:21.990Z,32.10
2022-09-01T13:19:53.929Z,32.78
2022-09-01T13:22:26.025Z,31.96
2022-09-01T13:24:58.055Z,31.83
2022-09-01T13:27:30.110Z,32.44
2022-09-01T13:30:01.977Z,33.26
2022-09-01T13:33:19.021Z,32.91
2022-09-01T13:35:30.857Z,33.34
2022-09-01T13:38:02.783Z,33.27
2022-09-01T13:40:37.348Z,33.72
2022-09-01T13:43:09.256Z,33.92
2022-09-01T13:45:42.030Z,34.22
2022-09-01T13:48:16.118Z,34.57
2022-09-01T13:53:44.146Z,34.33
2022-09-01T13:56:15.949Z,34.83
2022-09-01T13:58:48.505Z,35.29
2022-09-01T14:01:22.192Z,36.89
2022-09-01T14:03:57.166Z,37.25
2022-09-01T14:06:32.071Z,37.72
2022-09-01T14:09:04.024Z,37.93
2022-09-01T14:11:36.646Z,38.01
2022-09-01T14:14:08.934Z,38.10
2022-09-01T14:16:40.850Z,38.05
2022-09-01T14:19:14.114Z,38.23
2022-09-01T14:21:47.468Z,38.40
2022-09-01T14:24:21.134Z,38.16
2022-09-01T14:26:53.098Z,38.19
2022-09-01T14:29:25.101Z,38.21
2022-09-01T14:31:57.241Z,38.26
2022-09-01T14:34:31.076Z,38.42
2022-09-01T14:37:04.288Z,38.45
2022-09-01T14:39:36.332Z,37.96
2022-09-01T14:42:12.705Z,37.90
2022-09-01T14:44:44.765Z,37.90
2022-09-01T14:47:19.752Z,37.76
2022-09-01T14:49:53.990Z,37.79
2022-09-01T14:52:25.940Z,37.48
2022-09-01T14:54:57.835Z,37.34
2022-09-01T14:57:37.604Z,37.65
2022-09-01T15:00:17.148Z,37.94
2022-09-01T15:02:50.258Z,38.46
2022-09-01T15:05:22.309Z,38.79
2022-09-01T15:07:54.925Z,38.85
2022-09-01T15:10:28.630Z,38.98
2022-09-01T15:13:02.702Z,39.15
2022-09-01T15:15:34.695Z,39.08
2022-09-01T15:18:06.931Z,39.33
2022-09-01T15:20:48.786Z,39.53
2022-09-01T15:23:24.692Z,39.56
2022-09-01T15:25:58.027Z,39.29
2022-09-01T15:28:30.185Z,39.26
2022-09-01T15:31:02.131Z,39.26
2022-09-01T15:33:34.128Z,39.36
2022-09-01T15:36:10.801Z,39.03
2022-09-01T15:38:42.830Z,39.19
2022-09-01T15:41:18.954Z,39.45
2022-09-01T15:43:52.131Z,39.23
2022-09-01T15:46:32.045Z,38.83
2022-09-01T15:49:06.090Z,38.93
2022-09-01T15:51:40.200Z,39.10
2022-09-01T15:54:15.673Z,39.61
2022-09-01T15:56:48.068Z,39.59
2022-09-01T15:59:20.275Z,39.51
2022-09-01T16:01:53.329Z,39.61
2022-09-01T16:04:27.782Z,39.51
2022-09-01T16:06:59.801Z,39.66
2022-09-01T16:09:32.665Z,39.78
2022-09-01T16:12:04.997Z,39.47
2022-09-01T16:14:36.873Z,39.59
2022-09-01T16:17:18.938Z,39.73
2022-09-01T16:19:57.507Z,39.96
2022-09-01T16:22:32.662Z,40.01
2022-09-01T16:25:08.522Z,40.01
2022-09-01T16:27:44.703Z,40.40
2022-09-01T16:30:31.519Z,40.57
2022-09-01T16:33:19.978Z,40.69
2022-09-01T16:36:07.064Z,40.80
2022-09-01T16:38:47.727Z,41.01
2022-09-01T16:41:39.823Z,41.07
2022-09-01T16:44:23.679Z,41.25
2022-09-01T16:47:08.869Z,41.58
2022-09-01T16:49:50.932Z,41.52
2022-09-01T16:52:29.128Z,41.70
2022-09-01T16:55:18.618Z,41.77
2022-09-01T16:58:00.569Z,41.83
2022-09-01T17:00:41.673Z,41.94
2022-09-01T17:03:19.566Z,41.92
2022-09-01T17:05:58.036Z,41.84
2022-09-01T17:08:35.402Z,42.09
2022-09-01T17:11:11.944Z,42.10
2022-09-01T17:13:48.097Z,42.22
2022-09-01T17:16:26.016Z,42.37
2022-09-01T17:19:00.815Z,42.60
2022-09-01T17:21:41.895Z,42.64
2022-09-01T17:24:24.748Z,43.00
2022-09-01T17:27:08.078Z,43.17
2022-09-01T17:29:48.183Z,42.85
2022-09-01T17:32:48.381Z,43.19
2022-09-01T17:35:33.005Z,43.39
2022-09-01T17:38:18.234Z,43.68
2022-09-01T17:41:07.181Z,43.89
2022-09-01T17:43:51.102Z,43.97
2022-09-01T17:46:34.410Z,43.87
2022-09-01T17:49:14.545Z,44.22
2022-09-01T17:51:55.512Z,44.59
2022-09-01T17:54:36.486Z,44.78
2022-09-01T17:57:13.683Z,44.74
2022-09-01T17:59:54.000Z,44.99
2022-09-01T18:02:58.501Z,45.25
2022-09-01T18:05:37.652Z,45.49
2022-09-01T18:08:22.382Z,45.52
2022-09-01T18:10:59.984Z,45.81
2022-09-01T18:13:52.239Z,46.05
2022-09-01T18:16:29.669Z,45.83
2022-09-01T18:19:05.666Z,45.91
2022-09-01T18:21:48.820Z,46.12
2022-09-01T18:24:27.754Z,46.44
2022-09-01T18:27:01.722Z,46.38
2022-09-01T18:29:33.612Z,46.62
2022-09-01T18:32:19.083Z,46.75
2022-09-01T18:35:12.447Z,46.89
2022-09-01T18:37:58.162Z,46.77
2022-09-01T18:40:36.184Z,47.07
2022-09-01T18:43:17.968Z,47.15
2022-09-01T18:45:57.105Z,47.33
2022-09-01T18:48:41.349Z,47.43
2022-09-01T18:51:23.220Z,47.64
2022-09-01T18:54:02.134Z,47.80
2022-09-01T18:56:39.500Z,47.75
2022-09-01T18:59:32.183Z,48.05
2022-09-01T19:02:24.138Z,48.29
2022-09-01T19:05:03.490Z,48.70
2022-09-01T19:07:44.141Z,49.28
2022-09-01T19:10:24.386Z,49.36
2022-09-01T19:13:04.325Z,49.22
2022-09-01T19:15:42.870Z,49.28
2022-09-01T19:18:27.068Z,49.37
2022-09-01T19:21:06.734Z,49.30
2022-09-01T19:23:47.620Z,49.23
2022-09-01T19:26:21.249Z,49.97
2022-09-01T19:28:59.431Z,49.77
2022-09-01T19:31:35.272Z,50.43
2022-09-01T19:34:13.196Z,50.45
2022-09-01T19:36:48.414Z,50.26
2022-09-01T19:39:23.320Z,50.49
2022-09-01T19:42:00.447Z,50.69
2022-09-01T19:44:42.377Z,50.88
2022-09-01T19:47:19.984Z,51.22
2022-09-01T19:50:01.580Z,51.10
2022-09-01T19:52:39.625Z,51.52
2022-09-01T19:55:20.915Z,51.38
2022-09-01T19:57:58.391Z,51.46
2022-09-01T20:00:51.222Z,51.52
2022-09-01T20:03:28.694Z,51.75
2022-09-01T20:06:04.749Z,52.13
2022-09-01T20:08:41.327Z,51.90
2022-09-01T20:11:20.339Z,52.27
2022-09-01T20:14:15.491Z,52.65
2022-09-01T20:16:52.266Z,53.08
2022-09-01T20:19:31.217Z,53.54
2022-09-01T20:22:14.081Z,53.88
2022-09-01T20:24:47.221Z,54.04
2022-09-01T20:27:33.323Z,54.51
2022-09-01T20:30:10.761Z,54.78
2022-09-01T20:32:51.683Z,53.97
2022-09-01T20:35:31.177Z,54.66
2022-09-01T20:38:27.687Z,54.02
2022-09-01T20:41:02.033Z,54.58
2022-09-01T20:43:41.436Z,54.45
2022-09-01T20:46:13.308Z,54.33
2022-09-01T20:48:45.479Z,54.32
2022-09-01T20:51:22.748Z,54.46
2022-09-01T20:54:17.281Z,54.39
2022-09-01T20:56:56.337Z,54.03
2022-09-01T20:59:40.100Z,54.92
2022-09-01T21:02:31.481Z,54.29
2022-09-01T21:05:16.003Z,54.33
2022-09-01T21:07:56.557Z,54.28
2022-09-01T21:10:41.079Z,54.77
2022-09-01T21:13:25.284Z,54.87
2022-09-01T21:16:01.531Z,54.60
2022-09-01T21:18:46.754Z,54.71
2022-09-01T21:21:29.457Z,55.26
2022-09-01T21:24:01.312Z,55.34
2022-09-01T21:26:37.792Z,55.67
2022-09-01T21:29:28.919Z,55.08
2022-09-01T21:32:02.870Z,55.53
2022-09-01T21:34:34.895Z,55.52
2022-09-01T21:37:06.766Z,55.76
2022-09-01T21:39:38.721Z,55.76
2022-09-01T21:42:14.331Z,55.88
2022-09-01T21:44:46.705Z,55.68
2022-09-01T21:47:19.351Z,55.59
2022-09-01T21:49:51.688Z,55.50
2022-09-01T21:52:23.603Z,55.44
2022-09-01T21:54:55.433Z,55.59
2022-09-01T21:57:27.520Z,55.61
2022-09-01T21:59:59.397Z,56.08
2022-09-01T22:02:33.966Z,56.01
2022-09-01T22:05:06.460Z,56.12
2022-09-01T22:07:40.573Z,56.08
2022-09-01T22:10:18.833Z,56.54
2022-09-01T22:12:53.912Z,56.26
2022-09-01T22:15:26.864Z,56.62
2022-09-01T22:17:59.220Z,56.39
2022-09-01T22:20:32.115Z,57.15
2022-09-01T22:23:03.959Z,56.99
2022-09-01T22:25:37.809Z,56.93
2022-09-01T22:28:10.946Z,57.10
2022-09-01T22:30:48.363Z,56.90
2022-09-01T22:33:22.257Z,56.98
2022-09-01T22:35:56.843Z,57.07
2022-09-01T22:38:29.524Z,57.34
2022-09-01T22:41:02.393Z,57.62
2022-09-01T22:43:37.108Z,57.86
2022-09-01T22:46:09.987Z,57.91
2022-09-01T22:48:42.044Z,58.82
2022-09-01T22:51:15.157Z,58.84
2022-09-01T22:53:49.877Z,58.97
2022-09-01T22:56:25.025Z,59.26
2022-09-01T22:58:59.880Z,59.14
2022-09-01T23:01:35.793Z,59.41
2022-09-01T23:04:10.287Z,59.51
2022-09-01T23:06:46.970Z,59.59
2022-09-01T23:09:20.117Z,59.90
2022-09-01T23:11:52.208Z,59.92
2022-09-01T23:14:25.911Z,59.85
2022-09-01T23:16:58.441Z,59.72
2022-09-01T23:19:30.396Z,59.60
2022-09-01T23:22:03.188Z,59.71
2022-09-01T23:24:36.844Z,59.85
2022-09-01T23:27:08.973Z,59.93
2022-09-01T23:29:42.254Z,59.98
2022-09-01T23:32:14.254Z,60.01
2022-09-01T23:36:35.669Z,59.98
2022-09-01T23:39:07.913Z,60.14
2022-09-01T23:41:43.066Z,60.04
2022-09-01T23:44:16.068Z,60.06
2022-09-01T23:46:49.039Z,60.01
2022-09-01T23:49:21.520Z,60.17
2022-09-01T23:51:57.265Z,60.17
2022-09-01T23:54:29.140Z,60.33
2022-09-01T23:57:03.131Z,60.55
2022-09-01T23:59:34.906Z,60.51
